KCLW

Clearwater Airpark

Clearwater, Florida, USA
METAR KCLW 180815Z AUTO 00000KT 10SM CLR 17/16 A3021 RMK AO2
Observed Flight Rules
Dec-18 @ 08:15 UTC (34 minutes ago) Visual Flight Rules
Wind Visibility Clouds
Calm 10 miles
  • Clear skies
Temperatures Readings
Current 17°C / 63°F
Dewpoint 16°C / 61°F
Humidity 94%
Altimeter 30.21" Hg
Pressure 1023 hPa
Elevation 22
METAR KCLW 180815Z AUTO 00000KT 10SM CLR 17/16 A3021 RMK AO2
Observed Flight Rules
Dec-18 @ 08:15 UTC
(34 minutes ago)
VFR
Wind Visibility
Calm 10 miles
Clouds
  • Clear skies
Temperature Dewpoint
17°C / 63°F 16°C / 61°F
Humidity Altimeter Pressure
94% 30.21" Hg 1023 hPa